createdAt,value
2022-08-03T00:00:26.447Z,19.33
2022-08-03T00:02:53.649Z,19.32
2022-08-03T00:05:20.289Z,19.28
2022-08-03T00:07:46.704Z,19.27
2022-08-03T00:10:16.054Z,19.26
2022-08-03T00:12:42.465Z,19.24
2022-08-03T00:15:11.273Z,19.22
2022-08-03T00:17:53.029Z,19.21
2022-08-03T00:20:21.192Z,19.20
2022-08-03T00:22:47.739Z,19.18
2022-08-03T00:25:14.136Z,19.16
2022-08-03T00:27:40.516Z,19.14
2022-08-03T00:30:07.491Z,19.11
2022-08-03T00:32:33.891Z,19.06
2022-08-03T00:35:00.378Z,19.06
2022-08-03T00:37:41.514Z,19.03
2022-08-03T00:40:10.695Z,19.02
2022-08-03T00:42:50.754Z,18.98
2022-08-03T00:45:18.638Z,18.97
2022-08-03T00:47:45.792Z,18.94
2022-08-03T00:50:12.802Z,18.91
2022-08-03T00:52:39.940Z,18.86
2022-08-03T00:55:06.508Z,18.80
2022-08-03T00:57:33.619Z,18.77
2022-08-03T01:00:00.837Z,18.72
2022-08-03T01:02:28.850Z,18.69
2022-08-03T01:04:56.353Z,18.66
2022-08-03T01:07:51.060Z,18.62
2022-08-03T01:10:32.486Z,18.54
2022-08-03T01:14:01.080Z,18.52
2022-08-03T01:16:37.467Z,18.52
2022-08-03T01:19:47.107Z,18.48
2022-08-03T01:22:44.463Z,18.39
2022-08-03T01:25:36.411Z,18.36
2022-08-03T01:28:03.524Z,18.32
2022-08-03T01:30:33.474Z,18.27
2022-08-03T01:33:13.287Z,18.23
2022-08-03T01:35:51.927Z,18.17
2022-08-03T01:38:25.921Z,18.16
2022-08-03T01:40:56.796Z,18.14
2022-08-03T01:44:03.053Z,18.11
2022-08-03T01:46:17.135Z,18.08
2022-08-03T01:48:46.298Z,18.06
2022-08-03T01:51:15.545Z,18.01
2022-08-03T01:53:44.796Z,17.99
2022-08-03T01:56:12.513Z,17.98
2022-08-03T01:58:41.307Z,17.95
2022-08-03T02:01:10.053Z,17.92
2022-08-03T02:03:59.707Z,17.90
2022-08-03T02:07:00.172Z,17.89
2022-08-03T02:09:14.883Z,17.87
2022-08-03T02:11:43.384Z,17.85
2022-08-03T02:14:10.878Z,17.83
2022-08-03T02:16:37.432Z,17.80
2022-08-03T02:19:06.498Z,17.78
2022-08-03T02:21:56.335Z,17.76
2022-08-03T02:24:23.228Z,17.71
2022-08-03T02:26:51.556Z,17.73
2022-08-03T02:29:40.333Z,17.75
2022-08-03T02:32:12.426Z,17.76
2022-08-03T02:34:41.021Z,17.79
2022-08-03T02:37:10.280Z,17.76
2022-08-03T02:39:37.740Z,17.80
2022-08-03T02:42:07.584Z,17.82
2022-08-03T02:44:36.041Z,17.83
2022-08-03T02:47:06.732Z,17.85
2022-08-03T02:49:50.334Z,17.87
2022-08-03T02:52:23.210Z,17.87
2022-08-03T02:54:53.832Z,17.87
2022-08-03T02:57:22.360Z,17.87
2022-08-03T02:59:50.512Z,17.86
2022-08-03T03:02:19.004Z,17.85
2022-08-03T03:05:53.360Z,17.83
2022-08-03T03:07:47.795Z,17.81
2022-08-03T03:10:23.278Z,17.83
2022-08-03T03:12:57.232Z,17.82
2022-08-03T03:15:25.747Z,17.81
2022-08-03T03:17:53.621Z,17.79
2022-08-03T03:20:29.544Z,17.77
2022-08-03T03:23:00.236Z,17.75
2022-08-03T03:25:28.744Z,17.76
2022-08-03T03:27:55.493Z,17.75
2022-08-03T03:30:24.903Z,17.73
2022-08-03T03:32:52.588Z,17.73
2022-08-03T03:35:19.379Z,17.72
2022-08-03T03:37:46.091Z,17.71
2022-08-03T03:40:13.799Z,17.68
2022-08-03T03:42:40.550Z,17.68
2022-08-03T03:45:08.120Z,17.68
2022-08-03T03:47:35.679Z,17.67
2022-08-03T03:50:03.978Z,17.64
2022-08-03T03:52:32.259Z,17.64
2022-08-03T03:55:01.074Z,17.63
2022-08-03T03:57:28.124Z,17.64
2022-08-03T03:59:54.508Z,17.64
2022-08-03T04:02:21.061Z,17.63
2022-08-03T04:05:10.779Z,17.66
2022-08-03T04:08:10.261Z,17.67
2022-08-03T04:10:59.638Z,17.70
2022-08-03T04:13:37.577Z,17.73
2022-08-03T04:16:06.081Z,17.80
2022-08-03T04:18:34.555Z,17.82
2022-08-03T04:21:08.281Z,17.87
2022-08-03T04:23:37.710Z,17.99
2022-08-03T04:26:09.564Z,18.28
2022-08-03T04:28:37.461Z,19.17
2022-08-03T04:31:05.236Z,20.14
2022-08-03T04:33:34.904Z,20.52
2022-08-03T04:36:04.996Z,20.95
2022-08-03T04:38:36.005Z,20.98
2022-08-03T04:41:03.562Z,20.66
2022-08-03T04:43:32.830Z,20.89
2022-08-03T04:46:00.138Z,21.63
2022-08-03T04:48:27.272Z,21.94
2022-08-03T04:50:54.498Z,21.35
2022-08-03T04:53:21.367Z,20.91
2022-08-03T04:55:48.230Z,20.84
2022-08-03T04:58:14.633Z,21.27
2022-08-03T05:00:41.028Z,21.36
2022-08-03T05:03:19.503Z,21.47
2022-08-03T05:05:50.895Z,21.49
2022-08-03T05:08:22.665Z,21.19
2022-08-03T05:10:54.451Z,21.16
2022-08-03T05:13:21.083Z,22.11
2022-08-03T05:15:47.502Z,23.13
2022-08-03T05:18:14.509Z,22.98
2022-08-03T05:20:41.371Z,23.64
2022-08-03T05:23:07.812Z,23.70
2022-08-03T05:25:34.314Z,23.52
2022-08-03T05:28:00.727Z,23.17
2022-08-03T05:30:33.967Z,22.94
2022-08-03T05:33:02.626Z,22.67
2022-08-03T05:35:57.955Z,22.58
2022-08-03T05:38:23.928Z,23.08
2022-08-03T05:40:56.977Z,24.03
2022-08-03T05:43:24.455Z,24.50
2022-08-03T05:46:11.663Z,26.19
2022-08-03T05:48:37.466Z,27.64
2022-08-03T05:51:10.427Z,28.01
2022-08-03T05:53:37.530Z,28.06
2022-08-03T05:56:13.889Z,28.65
2022-08-03T05:58:43.335Z,29.90
2022-08-03T06:01:09.749Z,30.94
2022-08-03T06:03:36.239Z,31.33
2022-08-03T06:06:02.618Z,31.73
2022-08-03T06:08:29.222Z,31.79
2022-08-03T06:10:55.615Z,31.33
2022-08-03T06:13:22.032Z,31.29
2022-08-03T06:15:48.535Z,31.26
2022-08-03T06:18:14.945Z,31.80
2022-08-03T06:20:41.315Z,31.90
2022-08-03T06:23:07.962Z,32.12
2022-08-03T06:25:42.780Z,31.41
2022-08-03T06:28:42.431Z,31.81
2022-08-03T06:31:06.730Z,32.00
2022-08-03T06:34:30.571Z,32.21
2022-08-03T06:36:19.910Z,32.41
2022-08-03T06:38:46.708Z,32.81
2022-08-03T06:41:13.272Z,32.70
2022-08-03T06:44:03.364Z,32.46
2022-08-03T06:46:26.067Z,31.87
2022-08-03T06:48:52.931Z,32.10
2022-08-03T06:51:19.415Z,32.08
2022-08-03T06:53:45.788Z,32.64
2022-08-03T06:56:12.152Z,32.10
2022-08-03T06:58:38.530Z,31.78
2022-08-03T07:01:04.960Z,31.46
2022-08-03T07:03:31.552Z,31.35
2022-08-03T07:05:59.672Z,30.53
2022-08-03T07:08:33.818Z,30.36
2022-08-03T07:11:01.654Z,30.25
2022-08-03T07:13:28.627Z,30.40
2022-08-03T07:15:56.621Z,30.29
2022-08-03T07:18:29.289Z,30.86
2022-08-03T07:20:59.408Z,31.31
2022-08-03T07:23:25.876Z,32.07
2022-08-03T07:25:52.629Z,32.30
2022-08-03T07:28:20.021Z,32.68
2022-08-03T07:30:47.178Z,32.23
2022-08-03T07:33:13.880Z,32.18
2022-08-03T07:35:40.328Z,31.99
2022-08-03T07:38:06.802Z,31.92
2022-08-03T07:40:33.249Z,32.23
2022-08-03T07:42:59.932Z,32.21
2022-08-03T07:45:26.783Z,32.04
2022-08-03T07:47:54.095Z,32.16
2022-08-03T07:50:21.305Z,32.41
2022-08-03T07:52:48.040Z,32.60
2022-08-03T07:55:14.833Z,32.85
2022-08-03T07:57:41.333Z,32.52
2022-08-03T08:00:14.599Z,32.10
2022-08-03T08:02:41.970Z,32.22
2022-08-03T08:05:08.737Z,32.41
2022-08-03T08:07:35.124Z,32.52
2022-08-03T08:10:01.577Z,32.34
2022-08-03T08:12:28.224Z,31.20
2022-08-03T08:14:54.596Z,30.11
2022-08-03T08:17:21.111Z,29.67
2022-08-03T08:19:51.697Z,29.21
2022-08-03T08:22:29.725Z,29.08
2022-08-03T08:24:57.694Z,28.49
2022-08-03T08:27:24.068Z,28.39
2022-08-03T08:29:54.237Z,28.45
2022-08-03T08:32:23.070Z,28.46
2022-08-03T08:34:49.734Z,28.39
2022-08-03T08:37:16.412Z,28.36
2022-08-03T08:39:42.806Z,28.21
2022-08-03T08:42:16.662Z,28.05
2022-08-03T08:44:43.269Z,28.11
2022-08-03T08:47:10.167Z,28.04
2022-08-03T08:49:40.057Z,28.21
2022-08-03T08:52:25.276Z,28.13
2022-08-03T08:55:00.227Z,28.36
2022-08-03T08:57:42.333Z,28.48
2022-08-03T09:00:14.055Z,28.66
2022-08-03T09:02:44.339Z,28.78
2022-08-03T09:05:31.456Z,28.85
2022-08-03T09:08:05.292Z,28.80
2022-08-03T09:10:31.808Z,28.85
2022-08-03T09:12:58.229Z,28.82
2022-08-03T09:15:32.715Z,28.89
2022-08-03T09:18:01.295Z,28.94
2022-08-03T09:20:31.211Z,28.91
2022-08-03T09:23:51.225Z,28.79
2022-08-03T09:26:01.631Z,28.76
2022-08-03T09:29:00.060Z,28.77
2022-08-03T09:31:39.524Z,28.77
2022-08-03T09:34:12.610Z,28.80
2022-08-03T09:36:40.713Z,29.02
2022-08-03T09:39:11.261Z,28.97
2022-08-03T09:41:39.671Z,29.24
2022-08-03T09:44:06.324Z,29.18
2022-08-03T09:46:33.329Z,29.21
2022-08-03T09:49:11.748Z,29.39
2022-08-03T09:52:32.329Z,29.54
2022-08-03T09:54:27.846Z,29.54
2022-08-03T09:56:54.680Z,29.51
2022-08-03T09:59:29.811Z,29.60
2022-08-03T10:01:57.699Z,29.62
2022-08-03T10:04:24.732Z,29.58
2022-08-03T10:07:13.696Z,29.75
2022-08-03T10:09:54.934Z,29.83
2022-08-03T10:12:21.867Z,29.93
2022-08-03T10:14:48.302Z,29.97
2022-08-03T10:17:14.954Z,29.94
2022-08-03T10:19:41.811Z,29.89
2022-08-03T10:22:16.236Z,29.85
2022-08-03T10:25:00.714Z,30.00
2022-08-03T10:27:31.580Z,30.04
2022-08-03T10:30:03.231Z,30.18
2022-08-03T10:32:41.016Z,30.18
2022-08-03T10:35:21.587Z,30.13
2022-08-03T10:38:04.002Z,30.08
2022-08-03T10:40:49.520Z,30.11
2022-08-03T10:43:36.441Z,30.32
2022-08-03T10:46:07.200Z,30.29
2022-08-03T10:48:35.689Z,30.36
2022-08-03T10:51:03.391Z,30.49
2022-08-03T10:53:54.884Z,30.46
2022-08-03T10:56:53.380Z,30.49
2022-08-03T10:59:46.736Z,30.68
2022-08-03T11:02:14.699Z,30.75
2022-08-03T11:04:42.101Z,30.79
2022-08-03T11:07:24.667Z,30.80
2022-08-03T11:09:56.275Z,30.89
2022-08-03T11:12:30.017Z,30.89
2022-08-03T11:15:00.780Z,30.92
2022-08-03T11:17:27.300Z,30.92
2022-08-03T11:19:57.803Z,30.91
2022-08-03T11:22:25.352Z,30.97
2022-08-03T11:24:53.960Z,31.25
2022-08-03T11:27:23.109Z,31.32
2022-08-03T11:30:10.828Z,31.20
2022-08-03T11:32:37.318Z,31.13
2022-08-03T11:35:12.920Z,31.24
2022-08-03T11:38:04.450Z,31.42
2022-08-03T11:40:40.594Z,31.45
2022-08-03T11:43:37.202Z,31.35
2022-08-03T11:46:06.106Z,31.31
2022-08-03T11:48:38.547Z,31.48
2022-08-03T11:51:18.474Z,31.65
2022-08-03T11:53:47.712Z,31.58
2022-08-03T11:56:14.158Z,31.67
2022-08-03T11:59:16.384Z,31.64
2022-08-03T12:01:41.715Z,31.64
2022-08-03T12:04:08.375Z,31.73
2022-08-03T12:06:54.653Z,31.80
2022-08-03T12:09:21.477Z,31.96
2022-08-03T12:11:59.888Z,32.05
2022-08-03T12:14:48.788Z,32.09
2022-08-03T12:17:14.763Z,32.08
2022-08-03T12:19:44.874Z,32.14
2022-08-03T12:22:13.474Z,32.36
2022-08-03T12:24:46.593Z,32.40
2022-08-03T12:27:23.539Z,32.35
2022-08-03T12:29:58.444Z,32.25
2022-08-03T12:32:29.444Z,32.29
2022-08-03T12:35:05.948Z,32.30
2022-08-03T12:37:32.666Z,32.34
2022-08-03T12:40:07.853Z,32.51
2022-08-03T12:42:38.817Z,32.56
2022-08-03T12:45:21.651Z,32.73
2022-08-03T12:47:56.272Z,32.87
2022-08-03T12:50:33.816Z,33.02
2022-08-03T12:53:02.621Z,32.91
2022-08-03T12:55:57.267Z,32.94
2022-08-03T12:58:34.500Z,32.94
2022-08-03T13:01:05.143Z,32.93
2022-08-03T13:03:54.550Z,32.73
2022-08-03T13:06:25.493Z,32.71
2022-08-03T13:09:06.287Z,32.54
2022-08-03T13:11:55.948Z,32.72
2022-08-03T13:14:20.599Z,32.85
2022-08-03T13:16:48.683Z,32.83
2022-08-03T13:19:15.908Z,32.68
2022-08-03T13:22:02.183Z,32.66
2022-08-03T13:24:30.370Z,32.69
2022-08-03T13:26:57.024Z,32.72
2022-08-03T13:29:23.669Z,32.78
2022-08-03T13:31:50.601Z,32.99
2022-08-03T13:34:22.268Z,33.16
2022-08-03T13:39:57.155Z,32.96
2022-08-03T13:42:23.222Z,33.06
2022-08-03T13:44:49.796Z,33.20
2022-08-03T13:47:16.241Z,33.31
2022-08-03T13:49:42.860Z,33.48
2022-08-03T13:52:25.300Z,33.51
2022-08-03T13:54:51.740Z,33.48
2022-08-03T13:58:04.606Z,33.36
2022-08-03T14:00:06.635Z,33.28
2022-08-03T14:02:33.119Z,33.11
2022-08-03T14:04:59.568Z,33.23
2022-08-03T14:07:25.956Z,33.30
2022-08-03T14:09:52.331Z,33.44
2022-08-03T14:12:18.976Z,33.26
2022-08-03T14:14:45.343Z,33.28
2022-08-03T14:17:11.740Z,33.39
2022-08-03T14:19:52.542Z,33.48
2022-08-03T14:22:20.424Z,33.39
2022-08-03T14:24:46.819Z,33.61
2022-08-03T14:27:13.226Z,33.52
2022-08-03T14:29:39.603Z,33.49
2022-08-03T14:32:11.694Z,33.12
2022-08-03T14:34:39.686Z,32.68
2022-08-03T14:37:06.228Z,32.79
2022-08-03T14:42:20.379Z,33.13
2022-08-03T14:44:47.211Z,33.22
2022-08-03T14:47:13.694Z,33.46
2022-08-03T14:50:37.900Z,33.65
2022-08-03T14:52:26.593Z,33.58
2022-08-03T14:54:59.401Z,33.50
2022-08-03T14:57:26.328Z,33.73
2022-08-03T14:59:56.359Z,33.91
2022-08-03T15:02:25.378Z,33.84
2022-08-03T15:04:52.272Z,33.82
2022-08-03T15:07:19.236Z,33.87
2022-08-03T15:09:46.004Z,34.01
2022-08-03T15:12:12.410Z,33.99
2022-08-03T15:14:38.937Z,34.01
2022-08-03T15:17:05.996Z,34.07
2022-08-03T15:20:03.302Z,34.07
2022-08-03T15:22:20.635Z,33.99
2022-08-03T15:24:51.572Z,34.01
2022-08-03T15:27:18.320Z,34.11
2022-08-03T15:30:05.501Z,34.21
2022-08-03T15:32:31.391Z,34.07
2022-08-03T15:34:57.889Z,34.08
2022-08-03T15:37:25.598Z,34.09
2022-08-03T15:39:59.537Z,33.86
2022-08-03T15:42:28.243Z,33.82
2022-08-03T15:44:58.501Z,33.93
2022-08-03T15:47:25.187Z,34.15
2022-08-03T15:49:51.590Z,34.19
2022-08-03T15:52:17.997Z,34.20
2022-08-03T15:54:44.361Z,34.15
2022-08-03T15:57:14.412Z,34.11
2022-08-03T15:59:40.912Z,34.07
2022-08-03T16:02:07.419Z,33.83
2022-08-03T16:04:33.884Z,33.95
2022-08-03T16:07:00.259Z,34.00
2022-08-03T16:09:43.374Z,33.84
2022-08-03T16:12:11.880Z,33.78
2022-08-03T16:14:51.975Z,33.85
2022-08-03T16:17:20.352Z,33.92
2022-08-03T16:19:54.985Z,33.98
2022-08-03T16:22:22.889Z,34.07
2022-08-03T16:24:49.952Z,34.05
2022-08-03T16:27:17.536Z,34.17
2022-08-03T16:30:04.601Z,33.97
2022-08-03T16:32:31.315Z,33.85
2022-08-03T16:34:57.757Z,33.84
2022-08-03T16:37:38.174Z,33.83
2022-08-03T16:40:08.842Z,33.97
2022-08-03T16:42:44.132Z,33.99
2022-08-03T16:45:10.827Z,34.04
2022-08-03T16:47:37.218Z,34.03
2022-08-03T16:50:12.823Z,34.04
2022-08-03T16:52:42.107Z,33.95
2022-08-03T16:55:48.477Z,33.86
2022-08-03T16:58:05.929Z,33.86
2022-08-03T17:00:41.644Z,33.81
2022-08-03T17:03:18.971Z,33.70
2022-08-03T17:05:48.281Z,33.56
2022-08-03T17:08:26.148Z,33.42
2022-08-03T17:10:54.416Z,33.28
2022-08-03T17:13:22.066Z,33.28
2022-08-03T17:16:01.073Z,32.91
2022-08-03T17:18:34.152Z,32.73
2022-08-03T17:21:06.702Z,32.56
2022-08-03T17:24:00.779Z,32.37
2022-08-03T17:26:30.666Z,32.32
2022-08-03T17:29:12.842Z,32.19
2022-08-03T17:31:48.847Z,32.01
2022-08-03T17:34:26.591Z,31.99
2022-08-03T17:37:17.741Z,31.75
2022-08-03T17:39:58.621Z,31.52
2022-08-03T17:42:29.580Z,31.06
2022-08-03T17:44:58.708Z,30.95
2022-08-03T17:47:41.813Z,31.00
2022-08-03T17:50:24.211Z,31.04
2022-08-03T17:56:40.837Z,30.74
2022-08-03T17:59:50.537Z,30.58
2022-08-03T18:03:03.275Z,30.55
2022-08-03T18:06:11.341Z,30.34
2022-08-03T18:08:32.380Z,30.05
2022-08-03T18:11:09.562Z,29.89
2022-08-03T18:13:59.093Z,29.79
2022-08-03T18:16:33.388Z,29.59
2022-08-03T18:19:01.576Z,29.56
2022-08-03T18:22:02.053Z,29.51
2022-08-03T18:24:29.506Z,29.50
2022-08-03T18:26:57.132Z,29.42
2022-08-03T18:29:24.755Z,29.42
2022-08-03T18:32:01.480Z,29.16
2022-08-03T18:34:34.264Z,28.95
2022-08-03T18:37:07.545Z,28.96
2022-08-03T18:39:49.281Z,28.89
2022-08-03T18:42:19.185Z,28.78
2022-08-03T18:44:54.020Z,28.66
2022-08-03T18:47:51.673Z,28.59
2022-08-03T18:50:34.688Z,28.63
2022-08-03T18:54:03.597Z,28.61
2022-08-03T18:56:30.396Z,28.51
2022-08-03T18:59:03.200Z,28.43
2022-08-03T19:02:00.881Z,28.26
2022-08-03T19:04:38.722Z,28.06
2022-08-03T19:07:16.443Z,27.93
2022-08-03T19:09:52.181Z,27.67
2022-08-03T19:12:37.420Z,27.06
2022-08-03T19:15:12.702Z,26.89
2022-08-03T19:17:52.814Z,26.74
2022-08-03T19:20:25.486Z,26.79
2022-08-03T19:22:53.510Z,26.87
2022-08-03T19:25:33.402Z,26.90
2022-08-03T19:28:03.933Z,26.85
2022-08-03T19:30:38.909Z,26.79
2022-08-03T19:33:07.322Z,26.64
2022-08-03T19:35:51.217Z,26.55
2022-08-03T19:38:28.594Z,26.34
2022-08-03T19:41:13.764Z,26.10
2022-08-03T19:46:49.254Z,25.82
2022-08-03T19:49:16.497Z,25.52
2022-08-03T19:52:02.158Z,25.53
2022-08-03T19:54:53.757Z,25.60
2022-08-03T19:57:27.146Z,25.58
2022-08-03T19:59:55.489Z,25.56
2022-08-03T20:02:26.089Z,25.51
2022-08-03T20:04:54.263Z,25.43
2022-08-03T20:07:22.846Z,25.35
2022-08-03T20:09:56.050Z,25.29
2022-08-03T20:12:33.213Z,25.15
2022-08-03T20:15:04.571Z,24.99
2022-08-03T20:17:54.570Z,24.94
2022-08-03T20:20:30.169Z,24.94
2022-08-03T20:22:58.459Z,24.79
2022-08-03T20:25:37.913Z,24.60
2022-08-03T20:28:14.013Z,24.55
2022-08-03T20:30:47.261Z,24.38
2022-08-03T20:33:18.545Z,24.18
2022-08-03T20:38:33.417Z,24.07
2022-08-03T20:41:10.306Z,23.95
2022-08-03T20:43:36.818Z,23.87
2022-08-03T20:46:31.889Z,23.81
2022-08-03T20:48:50.140Z,23.76
2022-08-03T20:51:19.902Z,23.72
2022-08-03T20:53:59.427Z,23.68
2022-08-03T20:56:32.175Z,23.60
2022-08-03T20:59:05.618Z,23.50
2022-08-03T21:01:36.218Z,23.45
2022-08-03T21:04:09.327Z,23.41
2022-08-03T21:06:41.882Z,23.20
2022-08-03T21:09:18.395Z,23.11
2022-08-03T21:11:49.904Z,23.06
2022-08-03T21:13:04.733Z,30.99
2022-08-03T21:13:07.169Z,24.17
2022-08-03T21:13:08.996Z,26.07
2022-08-03T21:14:25.224Z,23.04
2022-08-03T21:16:52.912Z,22.99
2022-08-03T21:19:21.662Z,22.97
2022-08-03T21:21:50.483Z,22.94
2022-08-03T21:24:19.499Z,22.88
2022-08-03T21:26:48.920Z,22.77
2022-08-03T21:29:16.784Z,22.71
2022-08-03T21:31:43.752Z,22.66
2022-08-03T21:34:10.346Z,22.57
2022-08-03T21:36:45.415Z,22.32
2022-08-03T21:39:12.094Z,22.12
2022-08-03T21:41:47.436Z,22.09
2022-08-03T21:44:28.743Z,21.99
2022-08-03T21:46:56.784Z,21.88
2022-08-03T21:50:05.406Z,21.92
2022-08-03T21:52:12.788Z,21.94
2022-08-03T21:54:42.635Z,21.87
2022-08-03T21:57:18.476Z,21.72
2022-08-03T21:59:52.073Z,21.73
2022-08-03T22:02:24.306Z,21.73
2022-08-03T22:04:56.388Z,21.68
2022-08-03T22:07:25.711Z,21.68
2022-08-03T22:09:52.377Z,21.69
2022-08-03T22:12:21.695Z,21.66
2022-08-03T22:14:49.255Z,21.59
2022-08-03T22:17:54.957Z,21.58
2022-08-03T22:20:14.831Z,21.50
2022-08-03T22:22:44.808Z,21.47
2022-08-03T22:25:27.121Z,21.42
2022-08-03T22:27:54.872Z,21.44
2022-08-03T22:30:21.546Z,21.43
2022-08-03T22:32:51.867Z,21.41
2022-08-03T22:35:20.282Z,21.37
2022-08-03T22:37:49.499Z,21.34
2022-08-03T22:40:16.648Z,21.32
2022-08-03T22:42:52.133Z,21.33
2022-08-03T22:46:07.126Z,21.26
2022-08-03T22:48:07.479Z,21.23
2022-08-03T22:50:34.717Z,21.17
2022-08-03T22:53:01.347Z,21.11
2022-08-03T22:55:27.984Z,21.02
2022-08-03T22:57:55.928Z,20.96
2022-08-03T23:00:23.309Z,20.91
2022-08-03T23:02:51.323Z,20.84
2022-08-03T23:06:00.649Z,20.81
2022-08-03T23:08:14.351Z,20.76
2022-08-03T23:10:46.769Z,20.72
2022-08-03T23:13:23.390Z,20.67
2022-08-03T23:15:55.110Z,20.63
2022-08-03T23:18:23.295Z,20.57
2022-08-03T23:20:54.066Z,20.53
2022-08-03T23:23:22.656Z,20.48
2022-08-03T23:25:51.319Z,20.41
2022-08-03T23:28:18.417Z,20.39
2022-08-03T23:30:52.418Z,20.35
2022-08-03T23:33:25.382Z,20.35
2022-08-03T23:36:29.524Z,20.28
2022-08-03T23:38:44.992Z,20.21
2022-08-03T23:41:12.596Z,20.17
2022-08-03T23:43:51.807Z,20.15
2022-08-03T23:46:22.331Z,20.11
2022-08-03T23:48:57.374Z,20.09
2022-08-03T23:51:45.405Z,20.09
2022-08-03T23:54:40.419Z,20.00
2022-08-03T23:57:25.442Z,19.98
